sensor_id;sensor_type;location;lat;lon;timestamp;P1;durP1;ratioP1;P2;durP2;ratioP2
66826;SDS011;53727;45.242;19.796;2022-12-04T00:01:25;10.25;;;7.70;;
66826;SDS011;53727;45.242;19.796;2022-12-04T00:03:55;9.98;;;6.70;;
66826;SDS011;53727;45.242;19.796;2022-12-04T00:06:22;14.32;;;6.65;;
66826;SDS011;53727;45.242;19.796;2022-12-04T00:08:48;10.43;;;7.30;;
66826;SDS011;53727;45.242;19.796;2022-12-04T00:11:16;9.43;;;6.15;;
66826;SDS011;53727;45.242;19.796;2022-12-04T00:13:42;10.80;;;6.80;;
66826;SDS011;53727;45.242;19.796;2022-12-04T00:16:13;11.55;;;7.75;;
66826;SDS011;53727;45.242;19.796;2022-12-04T00:18:39;11.38;;;7.38;;
66826;SDS011;53727;45.242;19.796;2022-12-04T00:21:06;11.57;;;7.90;;
66826;SDS011;53727;45.242;19.796;2022-12-04T00:23:33;11.10;;;7.07;;
66826;SDS011;53727;45.242;19.796;2022-12-04T00:26:00;11.23;;;7.55;;
66826;SDS011;53727;45.242;19.796;2022-12-04T00:28:26;10.23;;;6.68;;
66826;SDS011;53727;45.242;19.796;2022-12-04T00:30:52;8.00;;;5.68;;
66826;SDS011;53727;45.242;19.796;2022-12-04T00:33:18;10.32;;;6.90;;
66826;SDS011;53727;45.242;19.796;2022-12-04T00:35:44;9.50;;;6.65;;
66826;SDS011;53727;45.242;19.796;2022-12-04T00:38:10;10.15;;;6.75;;
66826;SDS011;53727;45.242;19.796;2022-12-04T00:40:36;7.85;;;5.75;;
66826;SDS011;53727;45.242;19.796;2022-12-04T00:43:02;8.05;;;6.10;;
66826;SDS011;53727;45.242;19.796;2022-12-04T00:45:28;9.15;;;6.55;;
66826;SDS011;53727;45.242;19.796;2022-12-04T00:47:54;8.52;;;6.07;;
66826;SDS011;53727;45.242;19.796;2022-12-04T00:50:21;8.93;;;6.20;;
66826;SDS011;53727;45.242;19.796;2022-12-04T00:52:47;9.18;;;6.03;;
66826;SDS011;53727;45.242;19.796;2022-12-04T00:55:13;10.10;;;6.18;;
66826;SDS011;53727;45.242;19.796;2022-12-04T00:57:39;9.13;;;6.20;;
66826;SDS011;53727;45.242;19.796;2022-12-04T01:00:05;9.27;;;5.72;;
66826;SDS011;53727;45.242;19.796;2022-12-04T01:02:32;8.93;;;5.68;;
66826;SDS011;53727;45.242;19.796;2022-12-04T01:04:59;8.60;;;5.32;;
66826;SDS011;53727;45.242;19.796;2022-12-04T01:07:25;8.10;;;5.60;;
66826;SDS011;53727;45.242;19.796;2022-12-04T01:09:51;8.40;;;5.53;;
66826;SDS011;53727;45.242;19.796;2022-12-04T01:12:17;7.38;;;5.63;;
66826;SDS011;53727;45.242;19.796;2022-12-04T01:14:43;7.88;;;6.07;;
66826;SDS011;53727;45.242;19.796;2022-12-04T01:17:10;8.07;;;5.22;;
66826;SDS011;53727;45.242;19.796;2022-12-04T01:19:36;7.60;;;5.47;;
66826;SDS011;53727;45.242;19.796;2022-12-04T01:22:02;8.55;;;5.40;;
66826;SDS011;53727;45.242;19.796;2022-12-04T01:24:28;8.23;;;5.50;;
66826;SDS011;53727;45.242;19.796;2022-12-04T01:26:54;8.02;;;5.57;;
66826;SDS011;53727;45.242;19.796;2022-12-04T01:29:20;11.52;;;5.45;;
66826;SDS011;53727;45.242;19.796;2022-12-04T01:31:46;12.48;;;5.47;;
66826;SDS011;53727;45.242;19.796;2022-12-04T01:34:12;7.13;;;5.18;;
66826;SDS011;53727;45.242;19.796;2022-12-04T01:36:38;7.80;;;5.55;;
66826;SDS011;53727;45.242;19.796;2022-12-04T01:39:04;8.85;;;5.68;;
66826;SDS011;53727;45.242;19.796;2022-12-04T01:41:30;8.02;;;4.95;;
66826;SDS011;53727;45.242;19.796;2022-12-04T01:46:32;8.18;;;5.97;;
66826;SDS011;53727;45.242;19.796;2022-12-04T01:48:58;7.90;;;5.22;;
66826;SDS011;53727;45.242;19.796;2022-12-04T01:51:25;8.32;;;4.90;;
66826;SDS011;53727;45.242;19.796;2022-12-04T01:53:52;6.95;;;5.57;;
66826;SDS011;53727;45.242;19.796;2022-12-04T01:56:20;8.10;;;5.20;;
66826;SDS011;53727;45.242;19.796;2022-12-04T01:58:50;7.43;;;5.20;;
66826;SDS011;53727;45.242;19.796;2022-12-04T02:01:17;7.43;;;5.18;;
66826;SDS011;53727;45.242;19.796;2022-12-04T02:03:43;7.03;;;5.13;;
66826;SDS011;53727;45.242;19.796;2022-12-04T02:06:09;5.95;;;4.38;;
66826;SDS011;53727;45.242;19.796;2022-12-04T02:08:35;8.48;;;5.40;;
66826;SDS011;53727;45.242;19.796;2022-12-04T02:14:00;8.52;;;5.38;;
66826;SDS011;53727;45.242;19.796;2022-12-04T02:16:32;8.45;;;5.25;;
66826;SDS011;53727;45.242;19.796;2022-12-04T02:19:10;8.10;;;4.80;;
66826;SDS011;53727;45.242;19.796;2022-12-04T02:21:44;7.88;;;4.93;;
66826;SDS011;53727;45.242;19.796;2022-12-04T02:24:26;7.78;;;5.25;;
66826;SDS011;53727;45.242;19.796;2022-12-04T02:27:05;6.18;;;4.28;;
66826;SDS011;53727;45.242;19.796;2022-12-04T02:32:11;7.47;;;4.90;;
66826;SDS011;53727;45.242;19.796;2022-12-04T02:37:18;6.28;;;4.38;;
66826;SDS011;53727;45.242;19.796;2022-12-04T02:39:58;8.50;;;4.90;;
66826;SDS011;53727;45.242;19.796;2022-12-04T02:42:32;8.52;;;4.65;;
66826;SDS011;53727;45.242;19.796;2022-12-04T02:45:00;8.32;;;4.72;;
66826;SDS011;53727;45.242;19.796;2022-12-04T02:47:27;6.57;;;4.35;;
66826;SDS011;53727;45.242;19.796;2022-12-04T02:52:21;5.22;;;3.88;;
66826;SDS011;53727;45.242;19.796;2022-12-04T02:54:50;5.82;;;4.07;;
66826;SDS011;53727;45.242;19.796;2022-12-04T02:57:20;9.18;;;4.28;;
66826;SDS011;53727;45.242;19.796;2022-12-04T02:59:47;6.13;;;4.07;;
66826;SDS011;53727;45.242;19.796;2022-12-04T03:02:27;6.57;;;3.97;;
66826;SDS011;53727;45.242;19.796;2022-12-04T03:04:54;6.95;;;4.22;;
66826;SDS011;53727;45.242;19.796;2022-12-04T03:07:28;5.10;;;3.88;;
66826;SDS011;53727;45.242;19.796;2022-12-04T03:09:57;6.88;;;4.03;;
66826;SDS011;53727;45.242;19.796;2022-12-04T03:12:35;5.60;;;4.00;;
66826;SDS011;53727;45.242;19.796;2022-12-04T03:15:25;6.15;;;4.20;;
66826;SDS011;53727;45.242;19.796;2022-12-04T03:17:51;5.35;;;4.18;;
66826;SDS011;53727;45.242;19.796;2022-12-04T03:20:18;6.38;;;3.75;;
66826;SDS011;53727;45.242;19.796;2022-12-04T03:22:46;4.78;;;3.95;;
66826;SDS011;53727;45.242;19.796;2022-12-04T03:25:14;6.43;;;4.03;;
66826;SDS011;53727;45.242;19.796;2022-12-04T03:30:16;4.70;;;3.35;;
66826;SDS011;53727;45.242;19.796;2022-12-04T03:37:40;5.82;;;3.65;;
66826;SDS011;53727;45.242;19.796;2022-12-04T03:45:30;5.53;;;3.75;;
66826;SDS011;53727;45.242;19.796;2022-12-04T03:48:07;4.57;;;3.30;;
66826;SDS011;53727;45.242;19.796;2022-12-04T03:50:37;4.97;;;3.65;;
66826;SDS011;53727;45.242;19.796;2022-12-04T03:53:07;6.53;;;3.35;;
66826;SDS011;53727;45.242;19.796;2022-12-04T03:58:04;4.72;;;3.13;;
66826;SDS011;53727;45.242;19.796;2022-12-04T04:00:32;5.50;;;3.17;;
66826;SDS011;53727;45.242;19.796;2022-12-04T04:05:30;7.25;;;3.72;;
66826;SDS011;53727;45.242;19.796;2022-12-04T04:07:59;5.28;;;3.72;;
66826;SDS011;53727;45.242;19.796;2022-12-04T04:10:45;4.72;;;3.60;;
66826;SDS011;53727;45.242;19.796;2022-12-04T04:13:12;5.53;;;3.72;;
66826;SDS011;53727;45.242;19.796;2022-12-04T04:15:58;6.55;;;4.50;;
66826;SDS011;53727;45.242;19.796;2022-12-04T04:18:44;8.07;;;5.25;;
66826;SDS011;53727;45.242;19.796;2022-12-04T04:21:31;9.05;;;5.20;;
66826;SDS011;53727;45.242;19.796;2022-12-04T04:27:09;8.48;;;5.15;;
66826;SDS011;53727;45.242;19.796;2022-12-04T04:29:35;5.38;;;3.42;;
66826;SDS011;53727;45.242;19.796;2022-12-04T04:34:35;7.63;;;3.25;;
66826;SDS011;53727;45.242;19.796;2022-12-04T04:37:14;5.72;;;3.13;;
66826;SDS011;53727;45.242;19.796;2022-12-04T04:39:47;4.43;;;2.83;;
66826;SDS011;53727;45.242;19.796;2022-12-04T04:42:25;4.68;;;2.90;;
66826;SDS011;53727;45.242;19.796;2022-12-04T04:44:55;3.60;;;2.72;;
66826;SDS011;53727;45.242;19.796;2022-12-04T04:47:26;7.95;;;2.85;;
66826;SDS011;53727;45.242;19.796;2022-12-04T04:49:53;4.53;;;3.15;;
66826;SDS011;53727;45.242;19.796;2022-12-04T04:52:20;4.00;;;2.60;;
66826;SDS011;53727;45.242;19.796;2022-12-04T04:54:47;4.45;;;2.75;;
66826;SDS011;53727;45.242;19.796;2022-12-04T04:57:23;3.92;;;2.75;;
66826;SDS011;53727;45.242;19.796;2022-12-04T04:59:50;3.72;;;2.67;;
66826;SDS011;53727;45.242;19.796;2022-12-04T05:02:16;4.07;;;2.88;;
66826;SDS011;53727;45.242;19.796;2022-12-04T05:04:42;4.63;;;2.90;;
66826;SDS011;53727;45.242;19.796;2022-12-04T05:07:08;4.68;;;3.35;;
66826;SDS011;53727;45.242;19.796;2022-12-04T05:09:34;4.30;;;2.85;;
66826;SDS011;53727;45.242;19.796;2022-12-04T05:12:00;3.53;;;2.53;;
66826;SDS011;53727;45.242;19.796;2022-12-04T05:14:26;3.75;;;2.65;;
66826;SDS011;53727;45.242;19.796;2022-12-04T05:16:52;3.65;;;2.50;;
66826;SDS011;53727;45.242;19.796;2022-12-04T05:19:18;5.07;;;3.00;;
66826;SDS011;53727;45.242;19.796;2022-12-04T05:22:03;4.60;;;2.88;;
66826;SDS011;53727;45.242;19.796;2022-12-04T05:24:29;4.93;;;3.10;;
66826;SDS011;53727;45.242;19.796;2022-12-04T05:26:55;8.60;;;2.92;;
66826;SDS011;53727;45.242;19.796;2022-12-04T05:29:21;3.13;;;2.40;;
66826;SDS011;53727;45.242;19.796;2022-12-04T05:31:47;14.55;;;2.95;;
66826;SDS011;53727;45.242;19.796;2022-12-04T05:34:13;4.22;;;2.63;;
66826;SDS011;53727;45.242;19.796;2022-12-04T05:36:39;6.85;;;3.00;;
66826;SDS011;53727;45.242;19.796;2022-12-04T05:39:05;8.20;;;2.85;;
66826;SDS011;53727;45.242;19.796;2022-12-04T05:41:31;4.40;;;2.75;;
66826;SDS011;53727;45.242;19.796;2022-12-04T05:43:57;4.07;;;2.78;;
66826;SDS011;53727;45.242;19.796;2022-12-04T05:46:23;7.28;;;2.47;;
66826;SDS011;53727;45.242;19.796;2022-12-04T05:48:50;5.45;;;3.00;;
66826;SDS011;53727;45.242;19.796;2022-12-04T05:51:16;6.20;;;3.30;;
66826;SDS011;53727;45.242;19.796;2022-12-04T05:53:42;5.75;;;3.33;;
66826;SDS011;53727;45.242;19.796;2022-12-04T05:56:09;4.25;;;3.08;;
66826;SDS011;53727;45.242;19.796;2022-12-04T05:58:36;10.32;;;3.22;;
66826;SDS011;53727;45.242;19.796;2022-12-04T06:01:12;5.57;;;4.18;;
66826;SDS011;53727;45.242;19.796;2022-12-04T06:03:39;6.45;;;3.35;;
66826;SDS011;53727;45.242;19.796;2022-12-04T06:06:16;11.27;;;3.97;;
66826;SDS011;53727;45.242;19.796;2022-12-04T06:08:43;6.95;;;3.40;;
66826;SDS011;53727;45.242;19.796;2022-12-04T06:11:13;4.45;;;3.00;;
66826;SDS011;53727;45.242;19.796;2022-12-04T06:13:39;4.72;;;3.22;;
66826;SDS011;53727;45.242;19.796;2022-12-04T06:16:10;8.95;;;3.15;;
66826;SDS011;53727;45.242;19.796;2022-12-04T06:18:36;5.72;;;3.40;;
66826;SDS011;53727;45.242;19.796;2022-12-04T06:21:02;5.05;;;3.70;;
66826;SDS011;53727;45.242;19.796;2022-12-04T06:23:28;7.22;;;2.95;;
66826;SDS011;53727;45.242;19.796;2022-12-04T06:25:54;6.72;;;3.35;;
66826;SDS011;53727;45.242;19.796;2022-12-04T06:28:20;5.05;;;3.15;;
66826;SDS011;53727;45.242;19.796;2022-12-04T06:30:46;11.93;;;3.10;;
66826;SDS011;53727;45.242;19.796;2022-12-04T06:33:12;6.78;;;3.45;;
66826;SDS011;53727;45.242;19.796;2022-12-04T06:35:38;5.20;;;3.45;;
66826;SDS011;53727;45.242;19.796;2022-12-04T06:38:04;4.80;;;3.00;;
66826;SDS011;53727;45.242;19.796;2022-12-04T06:40:32;4.68;;;3.10;;
66826;SDS011;53727;45.242;19.796;2022-12-04T06:42:58;9.27;;;3.50;;
66826;SDS011;53727;45.242;19.796;2022-12-04T06:45:24;6.70;;;3.35;;
66826;SDS011;53727;45.242;19.796;2022-12-04T06:47:51;13.20;;;3.58;;
66826;SDS011;53727;45.242;19.796;2022-12-04T06:50:17;6.85;;;4.13;;
66826;SDS011;53727;45.242;19.796;2022-12-04T06:52:43;9.07;;;3.10;;
66826;SDS011;53727;45.242;19.796;2022-12-04T06:55:09;5.75;;;3.47;;
66826;SDS011;53727;45.242;19.796;2022-12-04T06:57:35;6.88;;;4.30;;
66826;SDS011;53727;45.242;19.796;2022-12-04T07:00:01;9.80;;;3.72;;
66826;SDS011;53727;45.242;19.796;2022-12-04T07:02:27;10.18;;;3.50;;
66826;SDS011;53727;45.242;19.796;2022-12-04T07:04:53;8.27;;;4.65;;
66826;SDS011;53727;45.242;19.796;2022-12-04T07:07:22;4.85;;;2.90;;
66826;SDS011;53727;45.242;19.796;2022-12-04T07:09:49;6.20;;;3.13;;
66826;SDS011;53727;45.242;19.796;2022-12-04T07:12:15;4.90;;;3.30;;
66826;SDS011;53727;45.242;19.796;2022-12-04T07:14:41;15.93;;;3.67;;
66826;SDS011;53727;45.242;19.796;2022-12-04T07:17:07;8.38;;;3.25;;
66826;SDS011;53727;45.242;19.796;2022-12-04T07:19:33;5.88;;;3.45;;
66826;SDS011;53727;45.242;19.796;2022-12-04T07:21:59;8.85;;;3.50;;
66826;SDS011;53727;45.242;19.796;2022-12-04T07:24:25;7.28;;;3.28;;
66826;SDS011;53727;45.242;19.796;2022-12-04T07:26:51;4.88;;;3.05;;
66826;SDS011;53727;45.242;19.796;2022-12-04T07:29:17;5.35;;;3.20;;
66826;SDS011;53727;45.242;19.796;2022-12-04T07:31:43;5.95;;;3.42;;
66826;SDS011;53727;45.242;19.796;2022-12-04T07:34:09;6.13;;;3.47;;
66826;SDS011;53727;45.242;19.796;2022-12-04T07:36:35;6.88;;;3.45;;
66826;SDS011;53727;45.242;19.796;2022-12-04T07:39:01;17.38;;;3.88;;
66826;SDS011;53727;45.242;19.796;2022-12-04T07:41:27;8.50;;;4.00;;
66826;SDS011;53727;45.242;19.796;2022-12-04T07:43:53;6.57;;;3.85;;
66826;SDS011;53727;45.242;19.796;2022-12-04T07:46:21;9.52;;;3.65;;
66826;SDS011;53727;45.242;19.796;2022-12-04T07:48:47;10.30;;;3.10;;
66826;SDS011;53727;45.242;19.796;2022-12-04T07:51:17;9.70;;;3.80;;
66826;SDS011;53727;45.242;19.796;2022-12-04T07:53:43;8.30;;;3.67;;
66826;SDS011;53727;45.242;19.796;2022-12-04T07:56:10;7.65;;;3.53;;
66826;SDS011;53727;45.242;19.796;2022-12-04T07:58:36;17.80;;;5.07;;
66826;SDS011;53727;45.242;19.796;2022-12-04T08:03:31;8.25;;;4.00;;
66826;SDS011;53727;45.242;19.796;2022-12-04T08:05:58;5.55;;;3.70;;
66826;SDS011;53727;45.242;19.796;2022-12-04T08:08:24;11.02;;;5.13;;
66826;SDS011;53727;45.242;19.796;2022-12-04T08:10:51;8.25;;;4.25;;
66826;SDS011;53727;45.242;19.796;2022-12-04T08:13:17;8.10;;;3.53;;
66826;SDS011;53727;45.242;19.796;2022-12-04T08:15:43;11.15;;;4.28;;
66826;SDS011;53727;45.242;19.796;2022-12-04T08:18:09;9.70;;;3.78;;
66826;SDS011;53727;45.242;19.796;2022-12-04T08:20:35;6.07;;;4.13;;
66826;SDS011;53727;45.242;19.796;2022-12-04T08:23:01;16.45;;;4.72;;
66826;SDS011;53727;45.242;19.796;2022-12-04T08:25:27;8.48;;;3.90;;
66826;SDS011;53727;45.242;19.796;2022-12-04T08:27:53;45.15;;;6.30;;
66826;SDS011;53727;45.242;19.796;2022-12-04T08:30:19;8.55;;;4.80;;
66826;SDS011;53727;45.242;19.796;2022-12-04T08:32:45;9.52;;;4.80;;
66826;SDS011;53727;45.242;19.796;2022-12-04T08:35:12;10.88;;;4.40;;
66826;SDS011;53727;45.242;19.796;2022-12-04T08:37:38;9.38;;;4.25;;
66826;SDS011;53727;45.242;19.796;2022-12-04T08:40:04;8.55;;;4.53;;
66826;SDS011;53727;45.242;19.796;2022-12-04T08:42:30;8.32;;;3.85;;
66826;SDS011;53727;45.242;19.796;2022-12-04T08:44:56;9.88;;;4.05;;
66826;SDS011;53727;45.242;19.796;2022-12-04T08:47:23;19.65;;;6.10;;
66826;SDS011;53727;45.242;19.796;2022-12-04T08:49:49;32.00;;;5.47;;
66826;SDS011;53727;45.242;19.796;2022-12-04T08:52:15;14.18;;;4.88;;
66826;SDS011;53727;45.242;19.796;2022-12-04T08:54:41;34.95;;;4.70;;
66826;SDS011;53727;45.242;19.796;2022-12-04T08:57:07;8.00;;;4.50;;
66826;SDS011;53727;45.242;19.796;2022-12-04T08:59:33;8.52;;;4.90;;
66826;SDS011;53727;45.242;19.796;2022-12-04T09:01:59;10.32;;;5.97;;
66826;SDS011;53727;45.242;19.796;2022-12-04T09:04:25;8.05;;;5.18;;
66826;SDS011;53727;45.242;19.796;2022-12-04T09:06:51;9.18;;;4.55;;
66826;SDS011;53727;45.242;19.796;2022-12-04T09:09:17;10.48;;;5.22;;
66826;SDS011;53727;45.242;19.796;2022-12-04T09:11:44;35.75;;;7.18;;
66826;SDS011;53727;45.242;19.796;2022-12-04T09:14:10;14.10;;;6.15;;
66826;SDS011;53727;45.242;19.796;2022-12-04T09:16:36;21.45;;;4.72;;
66826;SDS011;53727;45.242;19.796;2022-12-04T09:19:02;12.90;;;5.50;;
66826;SDS011;53727;45.242;19.796;2022-12-04T09:21:29;12.73;;;6.07;;
66826;SDS011;53727;45.242;19.796;2022-12-04T09:23:55;11.57;;;5.47;;
66826;SDS011;53727;45.242;19.796;2022-12-04T09:26:25;11.73;;;5.45;;
66826;SDS011;53727;45.242;19.796;2022-12-04T09:28:51;16.67;;;5.10;;
66826;SDS011;53727;45.242;19.796;2022-12-04T09:31:18;8.88;;;4.72;;
66826;SDS011;53727;45.242;19.796;2022-12-04T09:33:44;9.65;;;3.95;;
66826;SDS011;53727;45.242;19.796;2022-12-04T09:36:11;18.80;;;4.63;;
66826;SDS011;53727;45.242;19.796;2022-12-04T09:38:40;7.28;;;4.45;;
66826;SDS011;53727;45.242;19.796;2022-12-04T09:43:41;24.63;;;4.70;;
66826;SDS011;53727;45.242;19.796;2022-12-04T09:46:09;13.32;;;4.50;;
66826;SDS011;53727;45.242;19.796;2022-12-04T09:48:38;7.18;;;4.70;;
66826;SDS011;53727;45.242;19.796;2022-12-04T09:51:06;11.68;;;4.95;;
66826;SDS011;53727;45.242;19.796;2022-12-04T09:56:28;33.30;;;5.55;;
66826;SDS011;53727;45.242;19.796;2022-12-04T10:01:27;15.48;;;4.25;;
66826;SDS011;53727;45.242;19.796;2022-12-04T10:03:54;37.67;;;6.60;;
66826;SDS011;53727;45.242;19.796;2022-12-04T10:06:37;33.75;;;8.70;;
66826;SDS011;53727;45.242;19.796;2022-12-04T10:09:27;11.98;;;7.82;;
66826;SDS011;53727;45.242;19.796;2022-12-04T10:19:52;10.10;;;5.47;;
66826;SDS011;53727;45.242;19.796;2022-12-04T10:25:05;12.40;;;5.35;;
66826;SDS011;53727;45.242;19.796;2022-12-04T10:27:36;19.25;;;6.07;;
66826;SDS011;53727;45.242;19.796;2022-12-04T10:30:27;14.05;;;5.90;;
66826;SDS011;53727;45.242;19.796;2022-12-04T10:32:57;8.57;;;5.55;;
66826;SDS011;53727;45.242;19.796;2022-12-04T10:35:28;12.60;;;5.95;;
66826;SDS011;53727;45.242;19.796;2022-12-04T10:38:07;9.60;;;5.22;;
66826;SDS011;53727;45.242;19.796;2022-12-04T10:40:42;7.85;;;4.65;;
66826;SDS011;53727;45.242;19.796;2022-12-04T10:43:17;8.50;;;4.05;;
66826;SDS011;53727;45.242;19.796;2022-12-04T10:45:44;13.37;;;5.63;;
66826;SDS011;53727;45.242;19.796;2022-12-04T10:48:17;19.70;;;4.90;;
66826;SDS011;53727;45.242;19.796;2022-12-04T10:50:45;9.45;;;4.75;;
66826;SDS011;53727;45.242;19.796;2022-12-04T10:53:12;12.15;;;5.70;;
66826;SDS011;53727;45.242;19.796;2022-12-04T10:55:39;9.90;;;5.18;;
66826;SDS011;53727;45.242;19.796;2022-12-04T10:58:15;8.32;;;4.90;;
66826;SDS011;53727;45.242;19.796;2022-12-04T11:00:43;9.52;;;5.47;;
66826;SDS011;53727;45.242;19.796;2022-12-04T11:03:21;10.02;;;5.40;;
66826;SDS011;53727;45.242;19.796;2022-12-04T11:05:55;11.27;;;5.78;;
66826;SDS011;53727;45.242;19.796;2022-12-04T11:08:24;11.95;;;5.68;;
66826;SDS011;53727;45.242;19.796;2022-12-04T11:11:00;11.07;;;5.60;;
66826;SDS011;53727;45.242;19.796;2022-12-04T11:13:27;24.65;;;6.45;;
66826;SDS011;53727;45.242;19.796;2022-12-04T11:15:54;9.13;;;5.82;;
66826;SDS011;53727;45.242;19.796;2022-12-04T11:23:16;13.48;;;6.40;;
66826;SDS011;53727;45.242;19.796;2022-12-04T11:25:44;16.63;;;7.68;;
66826;SDS011;53727;45.242;19.796;2022-12-04T11:28:13;13.70;;;5.43;;
66826;SDS011;53727;45.242;19.796;2022-12-04T11:30:45;12.43;;;5.97;;
66826;SDS011;53727;45.242;19.796;2022-12-04T11:33:19;11.25;;;5.32;;
66826;SDS011;53727;45.242;19.796;2022-12-04T11:35:51;13.05;;;5.28;;
66826;SDS011;53727;45.242;19.796;2022-12-04T11:38:21;9.95;;;6.10;;
66826;SDS011;53727;45.242;19.796;2022-12-04T11:40:49;9.88;;;5.00;;
66826;SDS011;53727;45.242;19.796;2022-12-04T11:43:16;9.85;;;4.38;;
66826;SDS011;53727;45.242;19.796;2022-12-04T11:45:56;17.27;;;6.22;;
66826;SDS011;53727;45.242;19.796;2022-12-04T11:48:22;12.68;;;5.30;;
66826;SDS011;53727;45.242;19.796;2022-12-04T11:50:52;18.70;;;5.30;;
66826;SDS011;53727;45.242;19.796;2022-12-04T11:53:25;6.45;;;4.25;;
66826;SDS011;53727;45.242;19.796;2022-12-04T12:03:33;14.98;;;7.15;;
66826;SDS011;53727;45.242;19.796;2022-12-04T12:06:09;16.95;;;10.32;;
66826;SDS011;53727;45.242;19.796;2022-12-04T12:18:33;9.90;;;5.90;;
66826;SDS011;53727;45.242;19.796;2022-12-04T12:26:14;9.93;;;6.47;;
66826;SDS011;53727;45.242;19.796;2022-12-04T12:33:59;13.20;;;5.90;;
66826;SDS011;53727;45.242;19.796;2022-12-04T12:36:30;24.80;;;6.97;;
66826;SDS011;53727;45.242;19.796;2022-12-04T12:39:08;10.27;;;5.13;;
66826;SDS011;53727;45.242;19.796;2022-12-04T12:41:43;8.63;;;4.80;;
66826;SDS011;53727;45.242;19.796;2022-12-04T12:44:14;11.57;;;5.20;;
66826;SDS011;53727;45.242;19.796;2022-12-04T12:46:47;9.15;;;5.18;;
66826;SDS011;53727;45.242;19.796;2022-12-04T12:54:44;18.13;;;6.65;;
66826;SDS011;53727;45.242;19.796;2022-12-04T12:59:41;11.15;;;6.32;;
66826;SDS011;53727;45.242;19.796;2022-12-04T13:04:54;15.18;;;6.43;;
66826;SDS011;53727;45.242;19.796;2022-12-04T13:07:26;10.35;;;4.85;;
66826;SDS011;53727;45.242;19.796;2022-12-04T13:09:59;11.70;;;5.80;;
66826;SDS011;53727;45.242;19.796;2022-12-04T13:12:27;13.50;;;6.57;;
66826;SDS011;53727;45.242;19.796;2022-12-04T13:14:54;11.13;;;5.85;;
66826;SDS011;53727;45.242;19.796;2022-12-04T13:19:52;7.32;;;6.25;;
66826;SDS011;53727;45.242;19.796;2022-12-04T13:37:52;16.05;;;6.72;;
66826;SDS011;53727;45.242;19.796;2022-12-04T13:40:28;11.10;;;6.22;;
66826;SDS011;53727;45.242;19.796;2022-12-04T13:45:40;15.18;;;7.07;;
66826;SDS011;53727;45.242;19.796;2022-12-04T13:48:10;11.38;;;5.68;;
66826;SDS011;53727;45.242;19.796;2022-12-04T13:50:37;20.20;;;7.45;;
66826;SDS011;53727;45.242;19.796;2022-12-04T13:53:03;10.18;;;7.60;;
66826;SDS011;53727;45.242;19.796;2022-12-04T13:57:57;11.27;;;5.80;;
66826;SDS011;53727;45.242;19.796;2022-12-04T14:00:33;9.05;;;5.97;;
66826;SDS011;53727;45.242;19.796;2022-12-04T14:03:26;14.10;;;6.68;;
66826;SDS011;53727;45.242;19.796;2022-12-04T14:05:46;14.30;;;6.18;;
66826;SDS011;53727;45.242;19.796;2022-12-04T14:13:40;13.63;;;5.50;;
66826;SDS011;53727;45.242;19.796;2022-12-04T14:18:50;12.13;;;5.03;;
66826;SDS011;53727;45.242;19.796;2022-12-04T14:21:17;11.75;;;6.30;;
66826;SDS011;53727;45.242;19.796;2022-12-04T14:23:43;11.05;;;5.47;;
66826;SDS011;53727;45.242;19.796;2022-12-04T14:26:26;12.15;;;6.05;;
66826;SDS011;53727;45.242;19.796;2022-12-04T14:28:52;13.52;;;6.38;;
66826;SDS011;53727;45.242;19.796;2022-12-04T14:31:36;8.88;;;6.10;;
66826;SDS011;53727;45.242;19.796;2022-12-04T14:36:42;8.23;;;5.35;;
66826;SDS011;53727;45.242;19.796;2022-12-04T14:39:13;11.68;;;7.72;;
66826;SDS011;53727;45.242;19.796;2022-12-04T14:41:42;16.50;;;9.00;;
66826;SDS011;53727;45.242;19.796;2022-12-04T14:44:22;16.58;;;8.05;;
66826;SDS011;53727;45.242;19.796;2022-12-04T14:46:50;9.93;;;5.60;;
66826;SDS011;53727;45.242;19.796;2022-12-04T14:54:37;9.30;;;5.45;;
66826;SDS011;53727;45.242;19.796;2022-12-04T14:57:13;9.82;;;5.85;;
66826;SDS011;53727;45.242;19.796;2022-12-04T14:59:43;11.90;;;5.95;;
66826;SDS011;53727;45.242;19.796;2022-12-04T15:02:10;8.40;;;5.15;;
66826;SDS011;53727;45.242;19.796;2022-12-04T15:04:36;25.40;;;6.55;;
66826;SDS011;53727;45.242;19.796;2022-12-04T15:07:31;21.42;;;5.45;;
66826;SDS011;53727;45.242;19.796;2022-12-04T15:09:57;13.77;;;6.07;;
66826;SDS011;53727;45.242;19.796;2022-12-04T15:12:52;8.93;;;4.97;;
66826;SDS011;53727;45.242;19.796;2022-12-04T15:15:20;17.95;;;5.05;;
66826;SDS011;53727;45.242;19.796;2022-12-04T15:23:19;11.05;;;4.97;;
66826;SDS011;53727;45.242;19.796;2022-12-04T15:25:49;9.02;;;3.97;;
66826;SDS011;53727;45.242;19.796;2022-12-04T15:28:20;12.60;;;4.82;;
66826;SDS011;53727;45.242;19.796;2022-12-04T15:30:47;12.40;;;5.35;;
66826;SDS011;53727;45.242;19.796;2022-12-04T15:33:14;10.63;;;5.15;;
66826;SDS011;53727;45.242;19.796;2022-12-04T15:38:11;9.23;;;5.13;;
66826;SDS011;53727;45.242;19.796;2022-12-04T15:40:38;8.93;;;4.18;;
66826;SDS011;53727;45.242;19.796;2022-12-04T15:43:14;13.25;;;4.90;;
66826;SDS011;53727;45.242;19.796;2022-12-04T15:45:41;5.95;;;4.25;;
66826;SDS011;53727;45.242;19.796;2022-12-04T15:48:07;7.28;;;5.07;;
66826;SDS011;53727;45.242;19.796;2022-12-04T15:50:33;8.13;;;4.38;;
66826;SDS011;53727;45.242;19.796;2022-12-04T15:53:15;7.18;;;4.13;;
66826;SDS011;53727;45.242;19.796;2022-12-04T15:55:49;7.20;;;4.20;;
66826;SDS011;53727;45.242;19.796;2022-12-04T16:00:45;7.50;;;4.32;;
66826;SDS011;53727;45.242;19.796;2022-12-04T16:03:24;9.32;;;4.20;;
66826;SDS011;53727;45.242;19.796;2022-12-04T16:06:12;10.85;;;4.22;;
66826;SDS011;53727;45.242;19.796;2022-12-04T16:08:43;8.45;;;4.30;;
66826;SDS011;53727;45.242;19.796;2022-12-04T16:13:45;10.30;;;6.97;;
66826;SDS011;53727;45.242;19.796;2022-12-04T16:16:16;9.20;;;4.95;;
66826;SDS011;53727;45.242;19.796;2022-12-04T16:18:43;8.57;;;5.07;;
66826;SDS011;53727;45.242;19.796;2022-12-04T16:21:17;9.57;;;5.30;;
66826;SDS011;53727;45.242;19.796;2022-12-04T16:23:43;8.18;;;3.95;;
66826;SDS011;53727;45.242;19.796;2022-12-04T16:26:13;8.13;;;5.00;;
66826;SDS011;53727;45.242;19.796;2022-12-04T16:28:39;13.88;;;5.07;;
66826;SDS011;53727;45.242;19.796;2022-12-04T16:31:06;9.35;;;5.28;;
66826;SDS011;53727;45.242;19.796;2022-12-04T16:33:32;7.80;;;4.07;;
66826;SDS011;53727;45.242;19.796;2022-12-04T16:35:58;9.30;;;4.53;;
66826;SDS011;53727;45.242;19.796;2022-12-04T16:38:24;9.68;;;4.55;;
66826;SDS011;53727;45.242;19.796;2022-12-04T16:40:50;7.82;;;4.50;;
66826;SDS011;53727;45.242;19.796;2022-12-04T16:43:16;8.55;;;5.20;;
66826;SDS011;53727;45.242;19.796;2022-12-04T16:45:47;12.38;;;4.50;;
66826;SDS011;53727;45.242;19.796;2022-12-04T16:48:13;9.43;;;4.47;;
66826;SDS011;53727;45.242;19.796;2022-12-04T16:50:40;6.85;;;4.45;;
66826;SDS011;53727;45.242;19.796;2022-12-04T16:53:06;7.05;;;4.53;;
66826;SDS011;53727;45.242;19.796;2022-12-04T16:55:36;6.32;;;4.63;;
66826;SDS011;53727;45.242;19.796;2022-12-04T16:58:03;10.23;;;5.18;;
66826;SDS011;53727;45.242;19.796;2022-12-04T17:00:29;10.45;;;6.57;;
66826;SDS011;53727;45.242;19.796;2022-12-04T17:02:55;10.85;;;5.45;;
66826;SDS011;53727;45.242;19.796;2022-12-04T17:05:25;15.75;;;8.02;;
66826;SDS011;53727;45.242;19.796;2022-12-04T17:07:52;12.88;;;6.63;;
66826;SDS011;53727;45.242;19.796;2022-12-04T17:10:19;8.63;;;5.03;;
66826;SDS011;53727;45.242;19.796;2022-12-04T17:12:45;10.88;;;5.38;;
66826;SDS011;53727;45.242;19.796;2022-12-04T17:15:11;20.92;;;6.88;;